INCM7: Indian Creek near Lanagan, MO

Data processed at Fri Jun 05 2020 23:15


All information presented herein is the property of the government of the United States of America and may be revised or deleted at any time without prior notice.
Dissemination of this information without the expressed written consent of the Public Affairs Office, Tulsa District U.S. Army Corps of Engineers is strictly prohibited.
These data are gathered electronically and, as presented, have not undergone any form of quality control. These data are not guaranteed to be valid or correct.
Go to home page.
Go to station list.
Go to home page.

Downstream station:


Previous Day
Next Day
Current Day
    
SHEF ID:       INCM7     Indian Creek near Lanagan, MO
STATION TYPE:  

               PRECIP     STAGE  RIV-FLOW  BAT-LOAD
                   in        ft       cfs      volt
              Ccp-Rev   Ccp-Rev   Ccp-Rev   Ccp-Rev
(US/Central)
06/05 00:00      0.00      2.63       514     12.60
06/05 01:00      0.00      2.64       518     12.60
06/05 02:00      0.00      2.63       514     12.60
06/05 03:00      0.00      2.63       514     12.54
06/05 04:00      0.00      2.61       504     12.54
06/05 05:00      0.00      2.62       509     12.54
06/05 06:00      ----      2.62       509     12.54
06/05 07:00      0.00      2.62       509     12.54
06/05 08:00      0.00      2.62       509     12.60
06/05 09:00      0.00      2.59       495     12.77
06/05 10:00      0.00      2.61       504     12.89
06/05 11:00      0.00      2.61       504     13.18
06/05 12:00      0.00      2.60       500     13.24
06/05 13:00      0.00      2.59       495     13.30
06/05 14:00      0.00      2.57       486     12.95
06/05 15:00      0.00      2.59       495     12.83
06/05 16:00      0.00      2.58       490     12.95
06/05 17:00      0.00      2.58       490     12.77
06/05 18:00      0.00      2.57       486     12.77
06/05 19:00      0.00      2.57       486     12.83
06/05 20:00      0.00      2.55       477     12.89
06/05 21:00      0.00      2.55       477     12.71
06/05 22:00      0.00      2.54       472     12.65
06/05 23:00      ----      ----      ----      ----